sensor_id;sensor_type;location;lat;lon;timestamp;P1;durP1;ratioP1;P2;durP2;ratioP2
10588;SDS011;5342;55.676;13.346;2022-10-16T00:01:23;26.67;;;17.80;;
10588;SDS011;5342;55.676;13.346;2022-10-16T00:03:51;22.87;;;18.60;;
10588;SDS011;5342;55.676;13.346;2022-10-16T00:06:19;23.90;;;18.30;;
10588;SDS011;5342;55.676;13.346;2022-10-16T00:08:46;27.93;;;19.47;;
10588;SDS011;5342;55.676;13.346;2022-10-16T00:11:17;28.30;;;20.73;;
10588;SDS011;5342;55.676;13.346;2022-10-16T00:13:46;25.17;;;19.07;;
10588;SDS011;5342;55.676;13.346;2022-10-16T00:16:13;26.93;;;19.57;;
10588;SDS011;5342;55.676;13.346;2022-10-16T00:18:40;26.13;;;18.87;;
10588;SDS011;5342;55.676;13.346;2022-10-16T00:21:13;24.63;;;19.07;;
10588;SDS011;5342;55.676;13.346;2022-10-16T00:23:41;27.37;;;19.33;;
10588;SDS011;5342;55.676;13.346;2022-10-16T00:26:10;26.63;;;18.53;;
10588;SDS011;5342;55.676;13.346;2022-10-16T00:28:38;26.57;;;17.90;;
10588;SDS011;5342;55.676;13.346;2022-10-16T00:31:05;26.03;;;19.47;;
10588;SDS011;5342;55.676;13.346;2022-10-16T00:33:32;24.37;;;18.57;;
10588;SDS011;5342;55.676;13.346;2022-10-16T00:36:02;21.67;;;17.70;;
10588;SDS011;5342;55.676;13.346;2022-10-16T00:38:29;24.30;;;17.97;;
10588;SDS011;5342;55.676;13.346;2022-10-16T00:40:58;27.77;;;18.03;;
10588;SDS011;5342;55.676;13.346;2022-10-16T00:43:33;26.73;;;19.13;;
10588;SDS011;5342;55.676;13.346;2022-10-16T00:46:01;24.93;;;17.87;;
10588;SDS011;5342;55.676;13.346;2022-10-16T00:48:36;24.90;;;18.80;;
10588;SDS011;5342;55.676;13.346;2022-10-16T00:51:02;27.23;;;19.60;;
10588;SDS011;5342;55.676;13.346;2022-10-16T00:53:31;25.90;;;19.67;;
10588;SDS011;5342;55.676;13.346;2022-10-16T00:55:58;29.17;;;20.37;;
10588;SDS011;5342;55.676;13.346;2022-10-16T00:58:26;28.60;;;20.77;;
10588;SDS011;5342;55.676;13.346;2022-10-16T01:00:55;28.87;;;20.00;;
10588;SDS011;5342;55.676;13.346;2022-10-16T01:03:29;29.77;;;20.87;;
10588;SDS011;5342;55.676;13.346;2022-10-16T01:06:19;31.57;;;21.00;;
10588;SDS011;5342;55.676;13.346;2022-10-16T01:09:26;32.93;;;21.90;;
10588;SDS011;5342;55.676;13.346;2022-10-16T01:14:19;33.77;;;20.37;;
10588;SDS011;5342;55.676;13.346;2022-10-16T01:16:55;39.20;;;30.63;;
10588;SDS011;5342;55.676;13.346;2022-10-16T01:19:44;37.00;;;22.63;;
10588;SDS011;5342;55.676;13.346;2022-10-16T01:22:33;37.63;;;22.90;;
10588;SDS011;5342;55.676;13.346;2022-10-16T01:25:09;36.13;;;21.60;;
10588;SDS011;5342;55.676;13.346;2022-10-16T01:27:42;31.47;;;21.97;;
10588;SDS011;5342;55.676;13.346;2022-10-16T01:30:13;35.07;;;22.43;;
10588;SDS011;5342;55.676;13.346;2022-10-16T01:33:05;32.90;;;22.90;;
10588;SDS011;5342;55.676;13.346;2022-10-16T01:35:58;32.87;;;21.80;;
10588;SDS011;5342;55.676;13.346;2022-10-16T01:38:29;34.43;;;21.27;;
10588;SDS011;5342;55.676;13.346;2022-10-16T01:41:11;35.43;;;21.73;;
10588;SDS011;5342;55.676;13.346;2022-10-16T01:44:07;37.50;;;22.57;;
10588;SDS011;5342;55.676;13.346;2022-10-16T01:46:40;33.57;;;21.00;;
10588;SDS011;5342;55.676;13.346;2022-10-16T01:49:08;32.87;;;20.20;;
10588;SDS011;5342;55.676;13.346;2022-10-16T01:51:37;36.73;;;21.67;;
10588;SDS011;5342;55.676;13.346;2022-10-16T01:54:04;39.92;;;26.08;;
10588;SDS011;5342;55.676;13.346;2022-10-16T01:56:35;33.90;;;21.73;;
10588;SDS011;5342;55.676;13.346;2022-10-16T01:59:04;32.70;;;20.47;;
10588;SDS011;5342;55.676;13.346;2022-10-16T02:01:37;32.93;;;19.33;;
10588;SDS011;5342;55.676;13.346;2022-10-16T02:04:11;35.30;;;21.57;;
10588;SDS011;5342;55.676;13.346;2022-10-16T02:06:49;35.53;;;21.97;;
10588;SDS011;5342;55.676;13.346;2022-10-16T02:09:15;29.00;;;19.70;;
10588;SDS011;5342;55.676;13.346;2022-10-16T02:11:43;32.83;;;20.47;;
10588;SDS011;5342;55.676;13.346;2022-10-16T02:14:09;31.03;;;20.60;;
10588;SDS011;5342;55.676;13.346;2022-10-16T02:16:37;29.90;;;20.63;;
10588;SDS011;5342;55.676;13.346;2022-10-16T02:19:05;28.87;;;20.10;;
10588;SDS011;5342;55.676;13.346;2022-10-16T02:29:53;35.27;;;20.37;;
10588;SDS011;5342;55.676;13.346;2022-10-16T02:32:33;38.37;;;22.20;;
10588;SDS011;5342;55.676;13.346;2022-10-16T02:35:02;37.97;;;21.50;;
10588;SDS011;5342;55.676;13.346;2022-10-16T02:37:30;35.37;;;21.57;;
10588;SDS011;5342;55.676;13.346;2022-10-16T02:39:57;36.50;;;20.70;;
10588;SDS011;5342;55.676;13.346;2022-10-16T02:42:27;34.57;;;21.13;;
10588;SDS011;5342;55.676;13.346;2022-10-16T02:44:58;37.80;;;21.20;;
10588;SDS011;5342;55.676;13.346;2022-10-16T02:47:25;34.20;;;20.60;;
10588;SDS011;5342;55.676;13.346;2022-10-16T02:49:51;37.73;;;20.97;;
10588;SDS011;5342;55.676;13.346;2022-10-16T02:52:17;36.50;;;20.27;;
10588;SDS011;5342;55.676;13.346;2022-10-16T02:54:43;37.63;;;20.37;;
10588;SDS011;5342;55.676;13.346;2022-10-16T02:57:09;37.27;;;21.33;;
10588;SDS011;5342;55.676;13.346;2022-10-16T02:59:35;35.17;;;21.70;;
10588;SDS011;5342;55.676;13.346;2022-10-16T03:02:01;33.40;;;20.53;;
10588;SDS011;5342;55.676;13.346;2022-10-16T03:04:28;37.03;;;20.20;;
10588;SDS011;5342;55.676;13.346;2022-10-16T03:06:54;37.93;;;20.50;;
10588;SDS011;5342;55.676;13.346;2022-10-16T03:09:20;36.30;;;20.63;;
10588;SDS011;5342;55.676;13.346;2022-10-16T03:11:46;39.43;;;20.47;;
10588;SDS011;5342;55.676;13.346;2022-10-16T03:14:13;38.27;;;22.03;;
10588;SDS011;5342;55.676;13.346;2022-10-16T03:16:39;39.57;;;21.43;;
10588;SDS011;5342;55.676;13.346;2022-10-16T03:19:05;39.33;;;22.03;;
10588;SDS011;5342;55.676;13.346;2022-10-16T03:21:31;38.60;;;22.27;;
10588;SDS011;5342;55.676;13.346;2022-10-16T03:23:57;42.73;;;21.77;;
10588;SDS011;5342;55.676;13.346;2022-10-16T03:26:23;40.53;;;21.13;;
10588;SDS011;5342;55.676;13.346;2022-10-16T03:28:49;40.47;;;21.80;;
10588;SDS011;5342;55.676;13.346;2022-10-16T03:31:16;39.60;;;22.23;;
10588;SDS011;5342;55.676;13.346;2022-10-16T03:33:42;42.33;;;21.77;;
10588;SDS011;5342;55.676;13.346;2022-10-16T03:36:08;48.13;;;23.37;;
10588;SDS011;5342;55.676;13.346;2022-10-16T03:38:34;40.70;;;21.17;;
10588;SDS011;5342;55.676;13.346;2022-10-16T03:41:00;45.20;;;22.47;;
10588;SDS011;5342;55.676;13.346;2022-10-16T03:43:27;35.60;;;19.93;;
10588;SDS011;5342;55.676;13.346;2022-10-16T03:45:53;42.17;;;21.33;;
10588;SDS011;5342;55.676;13.346;2022-10-16T03:48:19;40.73;;;22.00;;
10588;SDS011;5342;55.676;13.346;2022-10-16T03:50:45;36.43;;;20.07;;
10588;SDS011;5342;55.676;13.346;2022-10-16T03:53:13;40.70;;;21.27;;
10588;SDS011;5342;55.676;13.346;2022-10-16T03:55:43;36.27;;;19.10;;
10588;SDS011;5342;55.676;13.346;2022-10-16T03:58:10;34.07;;;18.10;;
10588;SDS011;5342;55.676;13.346;2022-10-16T04:00:43;35.20;;;19.13;;
10588;SDS011;5342;55.676;13.346;2022-10-16T04:03:10;27.03;;;15.03;;
10588;SDS011;5342;55.676;13.346;2022-10-16T04:05:36;27.07;;;14.20;;
10588;SDS011;5342;55.676;13.346;2022-10-16T04:08:03;21.17;;;12.33;;
10588;SDS011;5342;55.676;13.346;2022-10-16T04:10:30;20.03;;;12.50;;
10588;SDS011;5342;55.676;13.346;2022-10-16T04:12:56;20.50;;;12.93;;
10588;SDS011;5342;55.676;13.346;2022-10-16T04:15:22;22.30;;;12.40;;
10588;SDS011;5342;55.676;13.346;2022-10-16T04:17:49;19.17;;;13.10;;
10588;SDS011;5342;55.676;13.346;2022-10-16T04:20:16;23.83;;;11.57;;
10588;SDS011;5342;55.676;13.346;2022-10-16T04:22:43;20.03;;;11.87;;
10588;SDS011;5342;55.676;13.346;2022-10-16T04:25:09;17.90;;;10.57;;
10588;SDS011;5342;55.676;13.346;2022-10-16T04:27:37;20.10;;;11.13;;
10588;SDS011;5342;55.676;13.346;2022-10-16T04:30:04;17.77;;;11.07;;
10588;SDS011;5342;55.676;13.346;2022-10-16T04:32:31;19.57;;;11.13;;
10588;SDS011;5342;55.676;13.346;2022-10-16T04:34:57;17.23;;;10.87;;
10588;SDS011;5342;55.676;13.346;2022-10-16T04:37:24;16.43;;;10.67;;
10588;SDS011;5342;55.676;13.346;2022-10-16T04:39:51;17.60;;;11.10;;
10588;SDS011;5342;55.676;13.346;2022-10-16T04:42:18;19.90;;;10.67;;
10588;SDS011;5342;55.676;13.346;2022-10-16T04:44:45;20.80;;;11.03;;
10588;SDS011;5342;55.676;13.346;2022-10-16T04:47:11;23.67;;;12.33;;
10588;SDS011;5342;55.676;13.346;2022-10-16T04:49:37;20.23;;;10.47;;
10588;SDS011;5342;55.676;13.346;2022-10-16T04:52:04;17.53;;;12.00;;
10588;SDS011;5342;55.676;13.346;2022-10-16T04:54:30;23.83;;;11.87;;
10588;SDS011;5342;55.676;13.346;2022-10-16T04:56:56;21.37;;;12.10;;
10588;SDS011;5342;55.676;13.346;2022-10-16T04:59:23;20.23;;;12.40;;
10588;SDS011;5342;55.676;13.346;2022-10-16T05:01:49;17.33;;;12.17;;
10588;SDS011;5342;55.676;13.346;2022-10-16T05:04:16;22.30;;;12.57;;
10588;SDS011;5342;55.676;13.346;2022-10-16T05:06:42;18.67;;;12.20;;
10588;SDS011;5342;55.676;13.346;2022-10-16T05:09:08;23.03;;;12.37;;
10588;SDS011;5342;55.676;13.346;2022-10-16T05:11:34;21.87;;;12.43;;
10588;SDS011;5342;55.676;13.346;2022-10-16T05:14:01;19.50;;;12.20;;
10588;SDS011;5342;55.676;13.346;2022-10-16T05:16:27;18.93;;;12.03;;
10588;SDS011;5342;55.676;13.346;2022-10-16T05:18:53;15.80;;;11.87;;
10588;SDS011;5342;55.676;13.346;2022-10-16T05:21:20;17.00;;;11.63;;
10588;SDS011;5342;55.676;13.346;2022-10-16T05:23:46;20.03;;;10.70;;
10588;SDS011;5342;55.676;13.346;2022-10-16T05:26:12;18.43;;;11.30;;
10588;SDS011;5342;55.676;13.346;2022-10-16T05:28:38;22.40;;;11.57;;
10588;SDS011;5342;55.676;13.346;2022-10-16T05:31:08;17.57;;;10.90;;
10588;SDS011;5342;55.676;13.346;2022-10-16T05:33:35;15.23;;;10.67;;
10588;SDS011;5342;55.676;13.346;2022-10-16T05:36:05;15.50;;;9.37;;
10588;SDS011;5342;55.676;13.346;2022-10-16T05:38:33;17.43;;;9.23;;
10588;SDS011;5342;55.676;13.346;2022-10-16T05:41:00;17.27;;;8.77;;
10588;SDS011;5342;55.676;13.346;2022-10-16T05:43:27;12.30;;;8.97;;
10588;SDS011;5342;55.676;13.346;2022-10-16T05:45:55;14.93;;;8.30;;
10588;SDS011;5342;55.676;13.346;2022-10-16T05:48:21;11.20;;;7.93;;
10588;SDS011;5342;55.676;13.346;2022-10-16T05:50:48;12.97;;;7.87;;
10588;SDS011;5342;55.676;13.346;2022-10-16T05:53:21;14.57;;;7.70;;
10588;SDS011;5342;55.676;13.346;2022-10-16T05:55:54;11.07;;;6.33;;
10588;SDS011;5342;55.676;13.346;2022-10-16T05:58:21;16.93;;;7.37;;
10588;SDS011;5342;55.676;13.346;2022-10-16T06:00:58;10.40;;;6.90;;
10588;SDS011;5342;55.676;13.346;2022-10-16T06:03:26;11.57;;;6.87;;
10588;SDS011;5342;55.676;13.346;2022-10-16T06:05:54;14.20;;;6.60;;
10588;SDS011;5342;55.676;13.346;2022-10-16T06:08:20;10.80;;;6.40;;
10588;SDS011;5342;55.676;13.346;2022-10-16T06:10:48;9.93;;;6.27;;
10588;SDS011;5342;55.676;13.346;2022-10-16T06:13:25;8.37;;;6.40;;
10588;SDS011;5342;55.676;13.346;2022-10-16T06:15:51;9.53;;;5.80;;
10588;SDS011;5342;55.676;13.346;2022-10-16T06:18:17;9.10;;;5.77;;
10588;SDS011;5342;55.676;13.346;2022-10-16T06:20:43;8.70;;;5.93;;
10588;SDS011;5342;55.676;13.346;2022-10-16T06:23:09;9.53;;;5.70;;
10588;SDS011;5342;55.676;13.346;2022-10-16T06:25:35;14.57;;;6.17;;
10588;SDS011;5342;55.676;13.346;2022-10-16T06:28:01;12.10;;;5.93;;
10588;SDS011;5342;55.676;13.346;2022-10-16T06:30:28;10.87;;;5.57;;
10588;SDS011;5342;55.676;13.346;2022-10-16T06:32:54;8.60;;;6.30;;
10588;SDS011;5342;55.676;13.346;2022-10-16T06:35:20;7.93;;;5.37;;
10588;SDS011;5342;55.676;13.346;2022-10-16T06:37:46;10.17;;;5.87;;
10588;SDS011;5342;55.676;13.346;2022-10-16T06:40:12;10.60;;;5.30;;
10588;SDS011;5342;55.676;13.346;2022-10-16T06:42:40;7.40;;;5.10;;
10588;SDS011;5342;55.676;13.346;2022-10-16T06:45:07;13.97;;;5.37;;
10588;SDS011;5342;55.676;13.346;2022-10-16T06:47:33;11.77;;;5.30;;
10588;SDS011;5342;55.676;13.346;2022-10-16T06:50:00;8.30;;;5.27;;
10588;SDS011;5342;55.676;13.346;2022-10-16T06:52:27;9.73;;;5.20;;
10588;SDS011;5342;55.676;13.346;2022-10-16T06:54:54;9.93;;;5.10;;
10588;SDS011;5342;55.676;13.346;2022-10-16T06:57:20;7.43;;;5.03;;
10588;SDS011;5342;55.676;13.346;2022-10-16T06:59:46;13.83;;;5.53;;
10588;SDS011;5342;55.676;13.346;2022-10-16T07:02:12;10.30;;;5.77;;
10588;SDS011;5342;55.676;13.346;2022-10-16T07:04:38;13.63;;;5.13;;
10588;SDS011;5342;55.676;13.346;2022-10-16T07:07:04;8.53;;;4.83;;
10588;SDS011;5342;55.676;13.346;2022-10-16T07:09:30;8.63;;;5.13;;
10588;SDS011;5342;55.676;13.346;2022-10-16T07:11:57;10.27;;;4.97;;
10588;SDS011;5342;55.676;13.346;2022-10-16T07:14:23;8.43;;;5.50;;
10588;SDS011;5342;55.676;13.346;2022-10-16T07:16:49;7.00;;;5.63;;
10588;SDS011;5342;55.676;13.346;2022-10-16T07:19:15;10.63;;;5.20;;
10588;SDS011;5342;55.676;13.346;2022-10-16T07:21:43;7.07;;;5.47;;
10588;SDS011;5342;55.676;13.346;2022-10-16T07:24:14;9.93;;;5.20;;
10588;SDS011;5342;55.676;13.346;2022-10-16T07:26:42;9.77;;;5.90;;
10588;SDS011;5342;55.676;13.346;2022-10-16T07:29:13;11.03;;;5.27;;
10588;SDS011;5342;55.676;13.346;2022-10-16T07:31:41;7.57;;;3.97;;
10588;SDS011;5342;55.676;13.346;2022-10-16T07:34:08;11.33;;;4.20;;
10588;SDS011;5342;55.676;13.346;2022-10-16T07:36:35;6.60;;;4.13;;
10588;SDS011;5342;55.676;13.346;2022-10-16T07:39:01;7.57;;;4.10;;
10588;SDS011;5342;55.676;13.346;2022-10-16T07:41:27;8.93;;;4.13;;
10588;SDS011;5342;55.676;13.346;2022-10-16T07:43:54;8.43;;;3.70;;
10588;SDS011;5342;55.676;13.346;2022-10-16T07:46:21;9.87;;;4.20;;
10588;SDS011;5342;55.676;13.346;2022-10-16T07:48:48;7.13;;;4.17;;
10588;SDS011;5342;55.676;13.346;2022-10-16T07:51:15;4.60;;;3.40;;
10588;SDS011;5342;55.676;13.346;2022-10-16T07:53:43;8.03;;;3.83;;
10588;SDS011;5342;55.676;13.346;2022-10-16T07:56:09;7.00;;;3.53;;
10588;SDS011;5342;55.676;13.346;2022-10-16T07:58:37;6.23;;;3.60;;
10588;SDS011;5342;55.676;13.346;2022-10-16T08:01:07;6.03;;;3.33;;
10588;SDS011;5342;55.676;13.346;2022-10-16T08:03:35;6.80;;;3.20;;
10588;SDS011;5342;55.676;13.346;2022-10-16T08:06:01;8.13;;;3.47;;
10588;SDS011;5342;55.676;13.346;2022-10-16T08:08:28;6.73;;;2.93;;
10588;SDS011;5342;55.676;13.346;2022-10-16T08:10:55;5.60;;;2.63;;
10588;SDS011;5342;55.676;13.346;2022-10-16T08:13:21;5.53;;;2.70;;
10588;SDS011;5342;55.676;13.346;2022-10-16T08:15:47;4.07;;;2.70;;
10588;SDS011;5342;55.676;13.346;2022-10-16T08:18:14;6.33;;;2.43;;
10588;SDS011;5342;55.676;13.346;2022-10-16T08:20:41;4.53;;;2.30;;
10588;SDS011;5342;55.676;13.346;2022-10-16T08:23:09;5.10;;;2.30;;
10588;SDS011;5342;55.676;13.346;2022-10-16T08:25:37;8.97;;;2.67;;
10588;SDS011;5342;55.676;13.346;2022-10-16T08:28:04;4.67;;;2.10;;
10588;SDS011;5342;55.676;13.346;2022-10-16T08:30:31;3.73;;;2.30;;
10588;SDS011;5342;55.676;13.346;2022-10-16T08:32:58;5.30;;;2.30;;
10588;SDS011;5342;55.676;13.346;2022-10-16T08:35:24;4.17;;;2.40;;
10588;SDS011;5342;55.676;13.346;2022-10-16T08:37:50;6.80;;;2.37;;
10588;SDS011;5342;55.676;13.346;2022-10-16T08:48:33;7.57;;;2.20;;
10588;SDS011;5342;55.676;13.346;2022-10-16T08:51:06;8.87;;;2.03;;
10588;SDS011;5342;55.676;13.346;2022-10-16T08:53:36;6.10;;;2.13;;
10588;SDS011;5342;55.676;13.346;2022-10-16T08:56:23;8.50;;;2.60;;
10588;SDS011;5342;55.676;13.346;2022-10-16T08:58:51;5.67;;;2.17;;
10588;SDS011;5342;55.676;13.346;2022-10-16T09:01:19;6.87;;;2.00;;
10588;SDS011;5342;55.676;13.346;2022-10-16T09:22:39;5.93;;;1.90;;
10588;SDS011;5342;55.676;13.346;2022-10-16T09:25:13;4.80;;;2.10;;
10588;SDS011;5342;55.676;13.346;2022-10-16T09:27:42;4.47;;;1.50;;
10588;SDS011;5342;55.676;13.346;2022-10-16T09:30:19;4.10;;;2.00;;
10588;SDS011;5342;55.676;13.346;2022-10-16T09:32:50;5.93;;;1.80;;
10588;SDS011;5342;55.676;13.346;2022-10-16T09:35:40;4.63;;;2.07;;
10588;SDS011;5342;55.676;13.346;2022-10-16T09:38:07;7.37;;;2.53;;
10588;SDS011;5342;55.676;13.346;2022-10-16T09:40:35;5.30;;;2.10;;
10588;SDS011;5342;55.676;13.346;2022-10-16T09:43:51;5.13;;;1.83;;
10588;SDS011;5342;55.676;13.346;2022-10-16T09:48:50;5.37;;;1.90;;
10588;SDS011;5342;55.676;13.346;2022-10-16T09:51:24;4.47;;;1.60;;
10588;SDS011;5342;55.676;13.346;2022-10-16T09:53:56;3.83;;;1.60;;
10588;SDS011;5342;55.676;13.346;2022-10-16T09:56:27;4.03;;;1.73;;
10588;SDS011;5342;55.676;13.346;2022-10-16T09:58:57;4.97;;;1.63;;
10588;SDS011;5342;55.676;13.346;2022-10-16T10:01:27;3.53;;;1.53;;
10588;SDS011;5342;55.676;13.346;2022-10-16T10:03:57;4.57;;;1.63;;
10588;SDS011;5342;55.676;13.346;2022-10-16T10:06:29;5.20;;;1.57;;
10588;SDS011;5342;55.676;13.346;2022-10-16T10:11:44;4.40;;;1.70;;
10588;SDS011;5342;55.676;13.346;2022-10-16T10:14:56;7.93;;;1.50;;
10588;SDS011;5342;55.676;13.346;2022-10-16T10:24:55;4.63;;;1.60;;
10588;SDS011;5342;55.676;13.346;2022-10-16T10:35:56;5.67;;;1.80;;
10588;SDS011;5342;55.676;13.346;2022-10-16T10:38:47;6.70;;;2.10;;
10588;SDS011;5342;55.676;13.346;2022-10-16T10:50:10;5.70;;;1.60;;
10588;SDS011;5342;55.676;13.346;2022-10-16T10:55:38;7.37;;;1.70;;
10588;SDS011;5342;55.676;13.346;2022-10-16T11:11:27;5.10;;;1.70;;
10588;SDS011;5342;55.676;13.346;2022-10-16T11:14:22;5.80;;;1.77;;
10588;SDS011;5342;55.676;13.346;2022-10-16T11:17:18;6.17;;;1.70;;
10588;SDS011;5342;55.676;13.346;2022-10-16T11:19:54;4.93;;;1.60;;
10588;SDS011;5342;55.676;13.346;2022-10-16T11:22:36;5.73;;;1.70;;
10588;SDS011;5342;55.676;13.346;2022-10-16T11:25:39;5.80;;;2.00;;
10588;SDS011;5342;55.676;13.346;2022-10-16T11:30:34;5.40;;;2.00;;
10588;SDS011;5342;55.676;13.346;2022-10-16T11:42:03;5.77;;;2.00;;
10588;SDS011;5342;55.676;13.346;2022-10-16T11:46:59;6.40;;;1.93;;
10588;SDS011;5342;55.676;13.346;2022-10-16T11:49:46;6.33;;;1.80;;
10588;SDS011;5342;55.676;13.346;2022-10-16T11:54:56;6.13;;;1.50;;
10588;SDS011;5342;55.676;13.346;2022-10-16T11:57:31;4.03;;;1.77;;
10588;SDS011;5342;55.676;13.346;2022-10-16T12:00:45;4.00;;;1.50;;
10588;SDS011;5342;55.676;13.346;2022-10-16T12:02:59;6.37;;;1.97;;
10588;SDS011;5342;55.676;13.346;2022-10-16T12:06:04;7.10;;;2.57;;
10588;SDS011;5342;55.676;13.346;2022-10-16T12:08:35;3.87;;;1.60;;
10588;SDS011;5342;55.676;13.346;2022-10-16T12:11:37;4.50;;;1.93;;
10588;SDS011;5342;55.676;13.346;2022-10-16T12:16:53;4.23;;;1.47;;
10588;SDS011;5342;55.676;13.346;2022-10-16T12:19:21;3.23;;;1.80;;
10588;SDS011;5342;55.676;13.346;2022-10-16T12:21:50;4.53;;;1.50;;
10588;SDS011;5342;55.676;13.346;2022-10-16T12:24:37;4.13;;;1.50;;
10588;SDS011;5342;55.676;13.346;2022-10-16T12:27:17;2.87;;;1.53;;
10588;SDS011;5342;55.676;13.346;2022-10-16T12:30:00;4.00;;;1.50;;
10588;SDS011;5342;55.676;13.346;2022-10-16T12:32:32;5.10;;;1.63;;
10588;SDS011;5342;55.676;13.346;2022-10-16T12:35:01;5.60;;;2.10;;
10588;SDS011;5342;55.676;13.346;2022-10-16T12:37:33;3.17;;;1.43;;
10588;SDS011;5342;55.676;13.346;2022-10-16T12:40:15;3.60;;;1.43;;
10588;SDS011;5342;55.676;13.346;2022-10-16T12:42:53;4.13;;;1.70;;
10588;SDS011;5342;55.676;13.346;2022-10-16T12:45:29;3.50;;;1.63;;
10588;SDS011;5342;55.676;13.346;2022-10-16T12:48:00;3.70;;;1.63;;
10588;SDS011;5342;55.676;13.346;2022-10-16T12:53:01;6.57;;;1.80;;
10588;SDS011;5342;55.676;13.346;2022-10-16T12:55:32;4.47;;;1.50;;
10588;SDS011;5342;55.676;13.346;2022-10-16T12:58:09;4.30;;;1.30;;
10588;SDS011;5342;55.676;13.346;2022-10-16T13:06:35;4.83;;;1.73;;
10588;SDS011;5342;55.676;13.346;2022-10-16T13:12:30;4.83;;;1.50;;
10588;SDS011;5342;55.676;13.346;2022-10-16T13:28:45;4.33;;;1.80;;
10588;SDS011;5342;55.676;13.346;2022-10-16T13:31:14;5.03;;;1.67;;
10588;SDS011;5342;55.676;13.346;2022-10-16T13:33:45;5.80;;;2.53;;
10588;SDS011;5342;55.676;13.346;2022-10-16T13:36:23;4.00;;;1.80;;
10588;SDS011;5342;55.676;13.346;2022-10-16T13:39:06;9.37;;;2.07;;
10588;SDS011;5342;55.676;13.346;2022-10-16T13:41:40;5.97;;;2.23;;
10588;SDS011;5342;55.676;13.346;2022-10-16T13:44:14;9.47;;;2.20;;
10588;SDS011;5342;55.676;13.346;2022-10-16T13:46:44;6.70;;;2.03;;
10588;SDS011;5342;55.676;13.346;2022-10-16T13:49:23;7.10;;;2.00;;
10588;SDS011;5342;55.676;13.346;2022-10-16T13:51:58;5.77;;;1.77;;
10588;SDS011;5342;55.676;13.346;2022-10-16T13:54:26;7.07;;;1.90;;
10588;SDS011;5342;55.676;13.346;2022-10-16T13:56:54;4.37;;;1.90;;
10588;SDS011;5342;55.676;13.346;2022-10-16T13:59:23;6.30;;;2.07;;
10588;SDS011;5342;55.676;13.346;2022-10-16T14:01:58;5.77;;;2.07;;
10588;SDS011;5342;55.676;13.346;2022-10-16T14:04:27;7.20;;;2.20;;
10588;SDS011;5342;55.676;13.346;2022-10-16T14:06:58;9.23;;;2.23;;
10588;SDS011;5342;55.676;13.346;2022-10-16T14:09:28;6.03;;;2.27;;
10588;SDS011;5342;55.676;13.346;2022-10-16T14:14:40;7.57;;;2.23;;
10588;SDS011;5342;55.676;13.346;2022-10-16T14:17:14;6.50;;;1.87;;
10588;SDS011;5342;55.676;13.346;2022-10-16T14:19:47;5.43;;;1.80;;
10588;SDS011;5342;55.676;13.346;2022-10-16T14:22:22;10.07;;;2.07;;
10588;SDS011;5342;55.676;13.346;2022-10-16T14:24:56;7.83;;;2.30;;
10588;SDS011;5342;55.676;13.346;2022-10-16T14:33:33;9.77;;;2.27;;
10588;SDS011;5342;55.676;13.346;2022-10-16T14:35:56;4.90;;;1.57;;
10588;SDS011;5342;55.676;13.346;2022-10-16T14:38:25;8.47;;;1.63;;
10588;SDS011;5342;55.676;13.346;2022-10-16T14:40:51;6.27;;;1.80;;
10588;SDS011;5342;55.676;13.346;2022-10-16T14:43:22;7.50;;;2.17;;
10588;SDS011;5342;55.676;13.346;2022-10-16T14:45:54;6.37;;;2.20;;
10588;SDS011;5342;55.676;13.346;2022-10-16T14:48:22;4.97;;;2.23;;
10588;SDS011;5342;55.676;13.346;2022-10-16T14:50:49;7.17;;;2.20;;
10588;SDS011;5342;55.676;13.346;2022-10-16T14:53:16;6.30;;;2.10;;
10588;SDS011;5342;55.676;13.346;2022-10-16T14:55:42;6.47;;;1.97;;
10588;SDS011;5342;55.676;13.346;2022-10-16T14:58:11;6.17;;;1.60;;
10588;SDS011;5342;55.676;13.346;2022-10-16T15:00:44;13.50;;;2.90;;
10588;SDS011;5342;55.676;13.346;2022-10-16T15:03:11;9.13;;;2.10;;
10588;SDS011;5342;55.676;13.346;2022-10-16T15:05:37;5.87;;;1.93;;
10588;SDS011;5342;55.676;13.346;2022-10-16T15:08:04;7.40;;;1.90;;
10588;SDS011;5342;55.676;13.346;2022-10-16T15:10:30;7.03;;;2.47;;
10588;SDS011;5342;55.676;13.346;2022-10-16T15:12:58;6.37;;;1.80;;
10588;SDS011;5342;55.676;13.346;2022-10-16T15:15:34;10.77;;;2.83;;
10588;SDS011;5342;55.676;13.346;2022-10-16T15:18:07;7.10;;;1.80;;
10588;SDS011;5342;55.676;13.346;2022-10-16T15:20:34;12.70;;;2.70;;
10588;SDS011;5342;55.676;13.346;2022-10-16T15:23:05;8.70;;;2.50;;
10588;SDS011;5342;55.676;13.346;2022-10-16T15:25:42;10.40;;;2.23;;
10588;SDS011;5342;55.676;13.346;2022-10-16T15:28:16;11.37;;;2.50;;
10588;SDS011;5342;55.676;13.346;2022-10-16T15:30:44;6.73;;;2.13;;
10588;SDS011;5342;55.676;13.346;2022-10-16T15:33:14;7.97;;;1.73;;
10588;SDS011;5342;55.676;13.346;2022-10-16T15:35:45;5.80;;;2.03;;
10588;SDS011;5342;55.676;13.346;2022-10-16T15:38:13;6.17;;;2.10;;
10588;SDS011;5342;55.676;13.346;2022-10-16T15:40:40;7.47;;;2.13;;
10588;SDS011;5342;55.676;13.346;2022-10-16T15:43:07;7.50;;;2.43;;
10588;SDS011;5342;55.676;13.346;2022-10-16T15:45:34;7.73;;;2.60;;
10588;SDS011;5342;55.676;13.346;2022-10-16T15:48:00;6.13;;;2.10;;
10588;SDS011;5342;55.676;13.346;2022-10-16T15:50:26;10.07;;;2.40;;
10588;SDS011;5342;55.676;13.346;2022-10-16T15:52:53;11.03;;;2.70;;
10588;SDS011;5342;55.676;13.346;2022-10-16T15:55:19;9.03;;;2.70;;
10588;SDS011;5342;55.676;13.346;2022-10-16T15:57:45;8.80;;;2.00;;
10588;SDS011;5342;55.676;13.346;2022-10-16T16:00:12;8.57;;;2.30;;
10588;SDS011;5342;55.676;13.346;2022-10-16T16:02:43;11.90;;;2.23;;
10588;SDS011;5342;55.676;13.346;2022-10-16T16:05:14;10.50;;;2.43;;
10588;SDS011;5342;55.676;13.346;2022-10-16T16:07:41;9.17;;;2.97;;
10588;SDS011;5342;55.676;13.346;2022-10-16T16:10:07;8.57;;;2.27;;
10588;SDS011;5342;55.676;13.346;2022-10-16T16:12:36;15.03;;;2.53;;
10588;SDS011;5342;55.676;13.346;2022-10-16T16:15:05;8.60;;;2.30;;
10588;SDS011;5342;55.676;13.346;2022-10-16T16:17:34;10.77;;;2.53;;
10588;SDS011;5342;55.676;13.346;2022-10-16T16:20:02;14.80;;;3.30;;
10588;SDS011;5342;55.676;13.346;2022-10-16T16:22:30;14.37;;;2.83;;
10588;SDS011;5342;55.676;13.346;2022-10-16T16:24:56;9.43;;;2.87;;
10588;SDS011;5342;55.676;13.346;2022-10-16T16:27:22;14.20;;;2.57;;
10588;SDS011;5342;55.676;13.346;2022-10-16T16:29:50;8.53;;;2.37;;
10588;SDS011;5342;55.676;13.346;2022-10-16T16:32:16;10.87;;;2.33;;
10588;SDS011;5342;55.676;13.346;2022-10-16T16:34:42;14.97;;;3.43;;
10588;SDS011;5342;55.676;13.346;2022-10-16T16:37:08;16.67;;;2.97;;
10588;SDS011;5342;55.676;13.346;2022-10-16T16:39:35;14.97;;;2.63;;
10588;SDS011;5342;55.676;13.346;2022-10-16T16:42:01;11.93;;;2.70;;
10588;SDS011;5342;55.676;13.346;2022-10-16T16:44:28;13.90;;;3.03;;
10588;SDS011;5342;55.676;13.346;2022-10-16T16:46:54;9.13;;;2.63;;
10588;SDS011;5342;55.676;13.346;2022-10-16T16:49:21;14.40;;;2.87;;
10588;SDS011;5342;55.676;13.346;2022-10-16T16:51:47;14.07;;;3.37;;
10588;SDS011;5342;55.676;13.346;2022-10-16T16:54:13;17.30;;;3.47;;
10588;SDS011;5342;55.676;13.346;2022-10-16T16:56:39;8.40;;;2.20;;
10588;SDS011;5342;55.676;13.346;2022-10-16T16:59:12;11.43;;;3.47;;
10588;SDS011;5342;55.676;13.346;2022-10-16T17:01:41;12.23;;;2.73;;
10588;SDS011;5342;55.676;13.346;2022-10-16T17:04:07;11.87;;;2.63;;
10588;SDS011;5342;55.676;13.346;2022-10-16T17:06:34;10.53;;;2.70;;
10588;SDS011;5342;55.676;13.346;2022-10-16T17:09:01;6.77;;;2.37;;
10588;SDS011;5342;55.676;13.346;2022-10-16T17:11:28;14.30;;;2.97;;